Time;durP1;ratioP1;P1;durP2;ratioP2;P2;SDS_P1;SDS_P2;PMS_P1;PMS_P2;Temp;Humidity;BMP_temperature;BMP_pressure;BME280_temperature;BME280_humidity;BME280_pressure;Samples;Min_cycle;Max_cycle;Signal;HPM_P1;HPM_P2
2021/03/04 00:00:43;;;;;;;4.87;4.47;;;19.70;51.30;;;;;;5077427;28;20519;-73
2021/03/04 00:03:09;;;;;;;6.60;5.23;;;19.70;51.60;;;;;;5073512;28;20476;-74
2021/03/04 00:05:36;;;;;;;5.27;4.70;;;19.60;51.10;;;;;;5076650;28;20484;-73
2021/03/04 00:08:04;;;;;;;5.50;5.00;;;19.70;51.10;;;;;;5072962;28;20496;-73
2021/03/04 00:10:30;;;;;;;4.30;3.97;;;19.60;51.10;;;;;;5074583;28;21169;-73
2021/03/04 00:12:57;;;;;;;4.87;4.33;;;19.60;50.90;;;;;;5074279;28;20492;-74
2021/03/04 00:15:25;;;;;;;5.80;5.03;;;19.60;51.10;;;;;;5073052;28;20518;-72
2021/03/04 00:17:52;;;;;;;5.87;4.73;;;19.60;51.70;;;;;;5067711;27;20499;-73
2021/03/04 00:20:19;;;;;;;6.03;4.30;;;19.60;51.60;;;;;;5086517;27;20481;-72
2021/03/04 00:22:45;;;;;;;5.53;4.53;;;19.60;51.20;;;;;;5075030;28;21012;-73
2021/03/04 00:25:12;;;;;;;7.00;4.90;;;19.70;51.20;;;;;;5070281;28;20476;-72
2021/03/04 00:27:38;;;;;;;6.50;5.40;;;19.70;51.20;;;;;;5070785;28;20496;-73
2021/03/04 00:30:07;;;;;;;5.40;4.43;;;19.70;51.70;;;;;;5073622;28;21019;-72
2021/03/04 00:32:33;;;;;;;5.00;4.50;;;19.70;51.70;;;;;;5072621;28;20545;-73
2021/03/04 00:34:59;;;;;;;7.67;6.07;;;19.70;51.50;;;;;;5072290;28;20488;-73
2021/03/04 00:37:25;;;;;;;7.00;5.03;;;19.70;52.40;;;;;;5072255;28;20885;-74
2021/03/04 00:39:51;;;;;;;5.80;5.27;;;19.70;51.90;;;;;;5072586;28;20562;-73
2021/03/04 00:42:18;;;;;;;6.50;4.97;;;19.70;51.50;;;;;;5074008;28;20481;-74
2021/03/04 00:44:44;;;;;;;5.13;4.63;;;19.60;51.30;;;;;;5090531;27;20482;-74
2021/03/04 00:47:11;;;;;;;7.23;4.50;;;19.70;51.10;;;;;;5072716;28;21031;-74
2021/03/04 00:49:38;;;;;;;6.07;5.10;;;19.70;51.00;;;;;;5071672;28;20836;-74
2021/03/04 00:52:04;;;;;;;6.47;4.53;;;19.70;50.80;;;;;;5071327;28;20477;-74
2021/03/04 00:54:30;;;;;;;6.27;4.67;;;19.70;50.70;;;;;;5074454;28;20476;-75
2021/03/04 00:56:57;;;;;;;5.27;4.40;;;19.70;50.90;;;;;;5074113;28;20476;-75
2021/03/04 00:59:23;;;;;;;5.00;4.30;;;19.70;51.30;;;;;;5072422;28;20480;-74
2021/03/04 01:01:49;;;;;;;4.50;4.07;;;19.70;51.20;;;;;;5072189;28;21106;-74
2021/03/04 01:04:16;;;;;;;5.30;4.80;;;19.70;51.10;;;;;;5079452;27;20851;-74
2021/03/04 01:06:42;;;;;;;4.90;4.40;;;19.70;50.30;;;;;;5086170;27;21035;-74
2021/03/04 01:09:08;;;;;;;4.30;4.00;;;19.70;50.30;;;;;;5072493;28;20468;-74
2021/03/04 01:11:35;;;;;;;5.07;3.90;;;19.70;50.10;;;;;;5076109;28;20469;-75
2021/03/04 01:14:01;;;;;;;5.20;4.70;;;19.70;50.10;;;;;;5069918;28;20502;-75
2021/03/04 01:16:27;;;;;;;4.30;3.90;;;19.60;50.10;;;;;;5071931;28;20971;-75
2021/03/04 01:18:53;;;;;;;3.77;3.50;;;19.70;50.20;;;;;;5072029;28;20531;-75
2021/03/04 01:21:21;;;;;;;4.90;4.13;;;19.70;50.80;;;;;;5084928;27;20467;-74
2021/03/04 01:23:47;;;;;;;3.80;3.50;;;19.60;50.60;;;;;;5076916;28;20468;-75
2021/03/04 01:26:13;;;;;;;3.57;3.07;;;19.70;50.50;;;;;;5072298;28;21006;-73
2021/03/04 01:28:39;;;;;;;3.50;3.20;;;19.70;50.40;;;;;;5073387;28;20477;-74
2021/03/04 01:31:05;;;;;;;3.70;3.27;;;19.70;50.10;;;;;;5071477;28;20485;-74
2021/03/04 01:33:32;;;;;;;3.17;2.90;;;19.80;50.20;;;;;;5073777;28;20541;-74
2021/03/04 01:35:58;;;;;;;3.67;3.43;;;19.80;50.00;;;;;;5073103;28;21205;-74
2021/03/04 01:38:25;;;;;;;2.60;2.50;;;19.80;50.10;;;;;;5072513;28;20490;-75
2021/03/04 01:40:51;;;;;;;3.80;3.20;;;19.80;49.90;;;;;;5073718;28;20477;-74
2021/03/04 01:43:17;;;;;;;3.37;3.17;;;19.80;50.40;;;;;;5069706;28;20913;-74
2021/03/04 01:45:44;;;;;;;3.90;3.30;;;19.80;50.50;;;;;;5070264;28;20476;-75
2021/03/04 01:48:10;;;;;;;2.53;2.43;;;19.70;50.20;;;;;;5072715;28;20490;-74
2021/03/04 01:50:36;;;;;;;3.10;2.70;;;19.70;50.00;;;;;;5071091;28;21035;-74
2021/03/04 01:53:03;;;;;;;2.90;2.70;;;19.70;49.50;;;;;;5069213;28;20534;-74
2021/03/04 01:55:30;;;;;;;2.90;2.70;;;19.70;50.20;;;;;;5072597;28;20478;-74
2021/03/04 01:57:56;;;;;;;2.60;2.40;;;19.70;50.10;;;;;;5068327;28;20478;-74
2021/03/04 02:00:23;;;;;;;3.03;2.83;;;19.70;50.20;;;;;;5068981;28;20566;-74
2021/03/04 02:02:49;;;;;;;2.13;2.03;;;19.70;50.10;;;;;;5061013;28;21115;-73
2021/03/04 02:05:16;;;;;;;2.03;1.93;;;19.70;50.00;;;;;;5100581;27;20477;-74
2021/03/04 02:07:45;;;;;;;1.73;1.63;;;19.70;49.60;;;;;;5071821;28;20472;-74
2021/03/04 02:10:14;;;;;;;1.83;1.73;;;19.70;49.60;;;;;;5060293;28;20547;-74
2021/03/04 02:12:43;;;;;;;2.10;2.00;;;19.70;49.80;;;;;;5063009;28;20544;-73
2021/03/04 02:15:13;;;;;;;1.60;1.60;;;19.70;50.00;;;;;;5051303;28;20528;-74
2021/03/04 02:17:39;;;;;;;1.60;1.50;;;19.70;49.90;;;;;;5050514;28;20495;-73
2021/03/04 02:20:07;;;;;;;1.30;1.30;;;19.70;49.70;;;;;;5066155;28;20483;-74
2021/03/04 02:22:52;;;;;;;2.20;2.10;;;19.70;49.30;;;;;;5082484;27;20471;-74
2021/03/04 02:25:20;;;;;;;1.50;1.40;;;19.70;49.10;;;;;;5073904;27;20470;-73
2021/03/04 02:27:48;;;;;;;1.73;1.63;;;19.70;49.00;;;;;;5083634;28;20487;-73
2021/03/04 02:30:15;;;;;;;1.53;1.53;;;19.70;49.30;;;;;;5069445;28;21638;-73
2021/03/04 02:32:43;;;;;;;2.00;1.20;;;19.70;48.90;;;;;;5070738;28;20476;-73
2021/03/04 02:35:12;;;;;;;1.43;1.30;;;19.60;49.00;;;;;;5069962;28;20476;-74
2021/03/04 02:37:40;;;;;;;1.40;1.40;;;19.60;49.10;;;;;;5066625;28;20484;-74
2021/03/04 02:40:08;;;;;;;1.57;1.47;;;19.70;49.00;;;;;;5072412;28;20520;-72
2021/03/04 02:42:35;;;;;;;1.57;1.57;;;19.70;50.10;;;;;;5072228;28;20589;-73
2021/03/04 02:45:02;;;;;;;1.50;1.40;;;19.60;49.40;;;;;;5063376;28;20496;-74
2021/03/04 02:47:28;;;;;;;1.27;1.17;;;19.60;49.20;;;;;;5066915;28;20866;-74
2021/03/04 02:49:54;;;;;;;1.20;1.20;;;19.70;49.50;;;;;;5068727;28;20515;-74
2021/03/04 02:52:21;;;;;;;1.50;1.40;;;19.70;49.20;;;;;;5071253;28;20493;-73
2021/03/04 02:54:47;;;;;;;1.47;1.40;;;19.60;49.30;;;;;;5068987;28;20541;-74
2021/03/04 02:57:13;;;;;;;1.00;0.87;;;19.70;49.20;;;;;;5069228;28;20476;-74
2021/03/04 02:59:40;;;;;;;1.30;1.30;;;19.70;48.90;;;;;;5074058;28;20467;-73
2021/03/04 03:02:07;;;;;;;1.07;1.07;;;19.70;48.90;;;;;;5085422;28;20484;-73
2021/03/04 03:04:34;;;;;;;1.50;1.40;;;19.80;48.80;;;;;;5070562;28;20499;-74
2021/03/04 03:07:00;;;;;;;0.87;0.87;;;19.80;48.80;;;;;;5070881;28;20510;-74
2021/03/04 03:09:26;;;;;;;1.17;1.17;;;19.70;48.60;;;;;;5067344;28;20496;-74
2021/03/04 03:11:52;;;;;;;3.23;1.70;;;19.70;49.00;;;;;;5068509;28;20492;-73
2021/03/04 03:14:19;;;;;;;1.17;1.07;;;19.70;49.00;;;;;;5071103;28;20485;-73
2021/03/04 03:16:45;;;;;;;1.17;0.80;;;19.70;49.10;;;;;;5068428;28;20473;-73
2021/03/04 03:19:12;;;;;;;0.80;0.80;;;19.70;48.40;;;;;;5069774;28;20468;-73
2021/03/04 03:21:38;;;;;;;1.97;1.40;;;19.60;48.50;;;;;;5091061;28;20488;-72
2021/03/04 03:24:05;;;;;;;1.00;1.00;;;19.60;48.20;;;;;;5070103;28;20465;-73
2021/03/04 03:26:32;;;;;;;2.30;0.90;;;19.60;48.30;;;;;;5070563;28;21264;-74
2021/03/04 03:28:58;;;;;;;1.00;0.87;;;19.60;48.40;;;;;;5086401;28;21029;-74
2021/03/04 03:31:24;;;;;;;1.20;1.10;;;19.60;48.30;;;;;;5070232;28;20693;-73
2021/03/04 03:33:51;;;;;;;0.70;0.70;;;19.60;48.30;;;;;;5072570;28;21015;-73
2021/03/04 03:36:18;;;;;;;1.27;1.27;;;19.60;48.80;;;;;;5065235;28;20856;-73
2021/03/04 03:38:44;;;;;;;1.27;1.20;;;19.60;48.60;;;;;;5091210;28;20693;-73
2021/03/04 03:41:10;;;;;;;1.03;1.03;;;19.60;48.70;;;;;;5053641;28;20464;-74
2021/03/04 03:43:37;;;;;;;1.00;1.00;;;19.60;48.50;;;;;;5070668;28;20481;-73
2021/03/04 03:46:03;;;;;;;1.07;1.07;;;19.60;48.50;;;;;;5073140;28;20546;-73
2021/03/04 03:48:29;;;;;;;0.80;0.80;;;19.70;48.40;;;;;;5068955;28;20519;-73
2021/03/04 03:50:56;;;;;;;1.00;1.00;;;19.70;48.40;;;;;;5095234;27;20476;-73
2021/03/04 03:53:23;;;;;;;0.90;0.90;;;19.70;48.40;;;;;;5071922;28;20537;-73
2021/03/04 03:55:50;;;;;;;0.70;0.70;;;19.70;48.20;;;;;;5075881;28;20537;-73
2021/03/04 03:58:17;;;;;;;1.30;1.20;;;19.80;48.20;;;;;;5072902;28;20491;-73
2021/03/04 04:00:43;;;;;;;2.00;1.00;;;19.80;48.10;;;;;;5071151;28;21014;-74
2021/03/04 04:03:09;;;;;;;0.97;0.80;;;19.80;48.10;;;;;;5081098;28;20479;-74
2021/03/04 04:05:36;;;;;;;1.10;1.10;;;19.80;47.90;;;;;;5072125;28;20481;-74
2021/03/04 04:08:02;;;;;;;2.20;0.67;;;19.80;48.10;;;;;;5072784;28;20558;-74
2021/03/04 04:10:30;;;;;;;1.83;0.90;;;19.70;48.20;;;;;;5076791;28;20476;-73
2021/03/04 04:12:56;;;;;;;1.00;1.00;;;19.70;48.00;;;;;;5074732;28;20515;-74
2021/03/04 04:15:22;;;;;;;1.17;1.10;;;19.70;47.70;;;;;;5072119;28;20471;-74
2021/03/04 04:17:49;;;;;;;0.60;0.60;;;19.70;47.80;;;;;;5070814;28;21009;-73
2021/03/04 04:20:16;;;;;;;2.90;1.00;;;19.70;47.70;;;;;;5072845;28;20481;-73
2021/03/04 04:22:42;;;;;;;1.00;1.00;;;19.80;47.70;;;;;;5073993;28;20495;-73
2021/03/04 04:25:09;;;;;;;0.60;0.60;;;19.80;47.60;;;;;;5070736;28;21251;-73
2021/03/04 04:27:36;;;;;;;1.20;1.20;;;19.80;47.50;;;;;;5072989;28;21114;-73
2021/03/04 04:30:03;;;;;;;1.73;0.73;;;19.80;47.30;;;;;;5072848;28;20493;-73
2021/03/04 04:32:29;;;;;;;2.20;0.73;;;19.80;47.30;;;;;;5069779;28;20485;-74
2021/03/04 04:34:55;;;;;;;1.77;0.97;;;19.80;47.20;;;;;;5072858;28;20484;-73
2021/03/04 04:37:22;;;;;;;0.93;0.80;;;19.80;47.20;;;;;;5073660;28;20542;-73
2021/03/04 04:39:48;;;;;;;0.80;0.60;;;19.80;47.20;;;;;;5073471;28;20492;-73
2021/03/04 04:42:14;;;;;;;0.67;0.67;;;19.80;47.10;;;;;;5071851;28;20485;-74
2021/03/04 04:44:41;;;;;;;0.90;0.90;;;19.80;47.10;;;;;;5074623;28;20479;-73
2021/03/04 04:47:07;;;;;;;0.70;0.70;;;19.80;47.10;;;;;;5071991;28;20493;-74
2021/03/04 04:49:34;;;;;;;1.70;0.80;;;19.70;47.10;;;;;;5071278;28;21022;-73
2021/03/04 04:52:00;;;;;;;0.80;0.80;;;19.70;47.30;;;;;;5071062;28;20485;-73
2021/03/04 04:54:26;;;;;;;1.23;0.60;;;19.70;47.30;;;;;;5062135;28;20489;-74
2021/03/04 04:56:52;;;;;;;2.37;1.03;;;19.70;47.40;;;;;;5084938;28;20504;-74
2021/03/04 04:59:18;;;;;;;0.60;0.60;;;19.70;47.50;;;;;;5069781;28;20484;-73
2021/03/04 05:01:46;;;;;;;0.70;0.60;;;19.60;47.40;;;;;;5076199;27;20484;-73
2021/03/04 05:04:12;;;;;;;1.80;0.63;;;19.60;47.50;;;;;;5053272;28;20484;-73
2021/03/04 05:06:38;;;;;;;0.70;0.70;;;19.60;47.50;;;;;;5072743;28;20465;-74
2021/03/04 05:09:05;;;;;;;0.87;0.87;;;19.50;47.40;;;;;;5074355;28;20486;-74
2021/03/04 05:11:31;;;;;;;0.70;0.70;;;19.50;47.40;;;;;;5074745;28;20506;-74
2021/03/04 05:13:58;;;;;;;0.80;0.80;;;19.50;47.50;;;;;;5064563;28;20488;-74
2021/03/04 05:16:24;;;;;;;0.70;0.70;;;19.60;47.40;;;;;;5095231;27;20491;-74
2021/03/04 05:18:51;;;;;;;0.67;0.67;;;19.60;47.40;;;;;;5080901;28;20972;-74
2021/03/04 05:21:17;;;;;;;0.60;0.60;;;19.50;47.30;;;;;;5084780;27;20471;-73
2021/03/04 05:23:43;;;;;;;1.00;0.60;;;19.60;47.30;;;;;;5080509;27;20531;-74
2021/03/04 05:26:10;;;;;;;0.77;0.77;;;19.60;47.20;;;;;;5070794;28;20492;-74
2021/03/04 05:28:36;;;;;;;0.80;0.80;;;19.60;47.20;;;;;;5072868;28;20472;-74
2021/03/04 05:31:02;;;;;;;0.60;0.60;;;19.60;46.90;;;;;;5071477;28;20480;-74
2021/03/04 05:33:28;;;;;;;2.63;0.73;;;19.70;47.00;;;;;;5071083;28;20888;-74
2021/03/04 05:35:55;;;;;;;0.60;0.60;;;19.80;46.80;;;;;;5069583;28;20493;-74
2021/03/04 05:38:21;;;;;;;0.60;0.60;;;19.80;46.40;;;;;;5072480;28;20466;-74
2021/03/04 05:40:48;;;;;;;0.60;0.60;;;19.80;46.40;;;;;;5072253;28;20481;-74
2021/03/04 05:43:14;;;;;;;0.97;0.60;;;19.90;46.50;;;;;;5070881;28;20473;-74
2021/03/04 05:45:41;;;;;;;0.60;0.50;;;19.80;46.30;;;;;;5070660;28;20469;-74
2021/03/04 05:48:08;;;;;;;1.57;0.80;;;19.80;46.20;;;;;;5071090;28;20510;-73
2021/03/04 05:50:35;;;;;;;0.73;0.50;;;19.70;46.30;;;;;;5072214;27;21109;-73
2021/03/04 05:53:05;;;;;;;1.37;0.97;;;19.70;46.40;;;;;;5070111;27;20490;-74
2021/03/04 05:55:31;;;;;;;0.60;0.60;;;19.70;46.40;;;;;;5069149;28;20485;-74
2021/03/04 05:57:57;;;;;;;1.17;0.77;;;19.70;46.40;;;;;;5070957;28;20481;-73
2021/03/04 06:00:24;;;;;;;0.60;0.60;;;19.70;46.40;;;;;;5072355;28;20481;-74
2021/03/04 06:02:50;;;;;;;0.90;0.90;;;19.70;46.40;;;;;;5071548;28;20487;-73
2021/03/04 06:05:16;;;;;;;0.60;0.60;;;19.70;46.40;;;;;;5072501;28;20555;-73
2021/03/04 06:07:43;;;;;;;0.67;0.67;;;19.70;46.40;;;;;;5071191;28;20939;-73
2021/03/04 06:10:11;;;;;;;0.63;0.63;;;19.70;46.40;;;;;;5073598;28;20533;-74
2021/03/04 06:12:38;;;;;;;1.13;0.73;;;19.70;46.40;;;;;;5072532;28;20477;-74
2021/03/04 06:15:05;;;;;;;1.00;1.00;;;19.70;46.40;;;;;;5067734;28;20497;-74
2021/03/04 06:17:31;;;;;;;0.80;0.73;;;19.60;46.30;;;;;;5071776;28;21257;-74
2021/03/04 06:19:58;;;;;;;0.70;0.70;;;19.70;46.40;;;;;;5066746;28;20488;-73
2021/03/04 06:22:25;;;;;;;1.63;0.70;;;19.70;46.40;;;;;;5073806;28;20491;-74
2021/03/04 06:24:52;;;;;;;0.80;0.60;;;19.70;46.40;;;;;;5067261;28;20484;-73
2021/03/04 06:27:29;;;;;;;0.60;0.60;;;19.70;46.30;;;;;;5072408;28;20477;-74
2021/03/04 06:29:55;;;;;;;0.77;0.77;;;19.70;46.10;;;;;;5069938;28;20478;-74
2021/03/04 06:32:23;;;;;;;0.73;0.70;;;19.70;46.10;;;;;;5070546;28;20481;-73
2021/03/04 06:35:00;;;;;;;0.60;0.60;;;19.70;45.90;;;;;;5071337;28;20994;-73
2021/03/04 06:37:28;;;;;;;0.53;0.53;;;19.80;46.00;;;;;;5070933;28;20476;-74
2021/03/04 06:39:54;;;;;;;0.60;0.60;;;19.70;46.80;;;;;;5070400;28;20476;-74
2021/03/04 06:42:22;;;;;;;1.23;0.60;;;19.70;46.10;;;;;;5071098;28;20484;-74
2021/03/04 06:44:51;;;;;;;0.60;0.60;;;19.70;46.10;;;;;;5069005;28;20494;-73
2021/03/04 06:47:20;;;;;;;1.57;0.80;;;19.80;46.00;;;;;;5069912;28;20477;-74
2021/03/04 06:49:46;;;;;;;0.60;0.60;;;19.80;45.80;;;;;;5061305;28;20481;-73
2021/03/04 06:52:23;;;;;;;1.07;0.70;;;19.90;45.90;;;;;;5069668;28;20481;-73
2021/03/04 06:54:50;;;;;;;1.00;0.90;;;19.90;45.80;;;;;;5062739;28;20485;-73
2021/03/04 06:57:16;;;;;;;1.23;0.50;;;19.90;45.80;;;;;;5068393;28;20494;-73
2021/03/04 06:59:43;;;;;;;1.03;0.73;;;19.90;45.70;;;;;;5090150;28;20491;-74
2021/03/04 07:02:11;;;;;;;1.40;0.80;;;19.90;45.50;;;;;;5093295;28;21587;-74
2021/03/04 07:04:37;;;;;;;2.43;0.97;;;19.90;45.50;;;;;;5077637;28;20530;-74
2021/03/04 07:07:05;;;;;;;0.60;0.60;;;19.90;45.40;;;;;;5079085;28;20510;-74
2021/03/04 07:09:33;;;;;;;0.80;0.60;;;19.80;45.30;;;;;;5068860;28;20509;-73
2021/03/04 07:11:59;;;;;;;0.70;0.70;;;19.90;45.70;;;;;;5072164;28;20489;-74
2021/03/04 07:14:25;;;;;;;1.13;0.80;;;19.80;45.50;;;;;;5071663;28;20469;-73
2021/03/04 07:16:51;;;;;;;0.90;0.70;;;19.80;45.40;;;;;;5074435;28;21273;-74
2021/03/04 07:19:19;;;;;;;0.70;0.70;;;19.80;45.30;;;;;;5070781;28;20480;-73
2021/03/04 07:21:46;;;;;;;0.80;0.80;;;19.80;45.20;;;;;;5059942;28;20984;-73
2021/03/04 07:24:12;;;;;;;1.73;0.63;;;19.80;45.50;;;;;;5072394;28;20489;-72
2021/03/04 07:26:38;;;;;;;0.50;0.50;;;19.70;45.60;;;;;;5074601;28;20480;-73
2021/03/04 07:29:05;;;;;;;1.17;0.70;;;19.70;45.60;;;;;;5074012;27;20481;-72
2021/03/04 07:31:31;;;;;;;1.07;0.70;;;19.60;45.70;;;;;;5072962;28;20469;-73
2021/03/04 07:33:57;;;;;;;0.60;0.60;;;19.60;45.80;;;;;;5073073;28;21004;-73
2021/03/04 07:36:24;;;;;;;1.40;0.53;;;19.60;45.70;;;;;;5073426;28;20488;-73
2021/03/04 07:38:57;;;;;;;0.70;0.70;;;19.50;45.60;;;;;;5081180;27;20486;-73
2021/03/04 07:41:34;;;;;;;0.97;0.60;;;19.50;45.90;;;;;;5089779;27;20549;-73
2021/03/04 07:44:00;;;;;;;2.03;1.43;;;19.40;46.10;;;;;;5065702;27;20494;-74
2021/03/04 07:46:30;;;;;;;1.57;0.67;;;19.40;46.10;;;;;;5100358;27;20527;-72
2021/03/04 07:48:56;;;;;;;1.80;0.67;;;19.40;46.10;;;;;;5072933;28;20503;-73
2021/03/04 07:51:23;;;;;;;3.70;0.70;;;19.50;46.30;;;;;;5073966;28;20506;-73
2021/03/04 07:53:49;;;;;;;0.60;0.50;;;19.60;46.30;;;;;;5069881;28;20473;-73
2021/03/04 07:56:26;;;;;;;2.13;0.70;;;19.60;46.30;;;;;;5071286;28;20492;-73
2021/03/04 07:58:52;;;;;;;0.97;0.67;;;19.60;46.20;;;;;;5073804;28;20564;-73
2021/03/04 08:01:19;;;;;;;2.20;0.80;;;19.70;46.10;;;;;;5070867;28;20821;-73
2021/03/04 08:03:46;;;;;;;4.67;0.63;;;19.60;45.80;;;;;;5075190;28;20537;-72
2021/03/04 08:06:12;;;;;;;0.80;0.80;;;19.70;45.90;;;;;;5068125;27;20954;-73
2021/03/04 08:08:40;;;;;;;1.90;0.63;;;19.70;45.90;;;;;;5094043;27;20469;-73
2021/03/04 08:11:06;;;;;;;3.30;1.00;;;19.70;45.80;;;;;;5074509;28;20485;-73
2021/03/04 08:13:33;;;;;;;1.60;0.63;;;19.70;45.70;;;;;;5072647;28;20511;-73
2021/03/04 08:15:59;;;;;;;0.70;0.70;;;19.70;46.40;;;;;;5072844;28;20500;-73
2021/03/04 08:18:26;;;;;;;0.90;0.87;;;19.70;46.40;;;;;;5069361;28;20879;-74
2021/03/04 08:20:53;;;;;;;1.20;1.10;;;19.70;46.20;;;;;;5073921;28;20507;-74
2021/03/04 08:23:19;;;;;;;1.63;0.90;;;19.70;45.90;;;;;;5071956;27;20479;-73
2021/03/04 08:25:47;;;;;;;0.50;0.50;;;19.70;45.90;;;;;;5071702;27;20484;-72
2021/03/04 08:28:21;;;;;;;1.77;0.70;;;19.70;46.00;;;;;;5075908;28;20900;-72
2021/03/04 08:30:47;;;;;;;0.87;0.70;;;19.70;46.20;;;;;;5067533;28;20476;-73
2021/03/04 08:33:13;;;;;;;0.70;0.63;;;19.70;45.60;;;;;;5064413;27;20552;-72
2021/03/04 08:35:41;;;;;;;2.27;0.90;;;19.70;45.50;;;;;;5074877;28;20631;-73
2021/03/04 08:38:08;;;;;;;1.10;0.80;;;19.70;45.40;;;;;;5074352;27;20575;-73
2021/03/04 08:40:38;;;;;;;0.83;0.60;;;19.60;45.30;;;;;;5074190;28;20480;-73
2021/03/04 08:43:10;;;;;;;0.67;0.67;;;19.70;45.40;;;;;;5070573;28;20514;-73
2021/03/04 08:45:36;;;;;;;3.33;0.60;;;19.70;45.40;;;;;;5069406;28;20871;-73
2021/03/04 08:48:05;;;;;;;0.73;0.63;;;19.60;45.40;;;;;;5069213;28;21457;-73
2021/03/04 08:50:35;;;;;;;0.80;0.70;;;19.60;46.20;;;;;;5072612;27;20598;-73
2021/03/04 08:53:01;;;;;;;2.70;0.70;;;19.60;47.10;;;;;;5088053;27;20482;-72
2021/03/04 08:55:27;;;;;;;0.90;0.67;;;19.60;46.60;;;;;;5069394;28;20492;-72
2021/03/04 08:58:04;;;;;;;1.43;1.00;;;19.60;46.30;;;;;;5073209;27;20482;-72
2021/03/04 09:00:32;;;;;;;0.77;0.77;;;19.60;46.20;;;;;;5074725;28;20512;-72
2021/03/04 09:03:09;;;;;;;1.50;0.73;;;19.60;45.70;;;;;;5070087;28;20488;-71
2021/03/04 09:05:35;;;;;;;0.73;0.70;;;19.60;45.60;;;;;;5070201;28;20485;-72
2021/03/04 09:08:07;;;;;;;1.67;0.70;;;19.60;45.70;;;;;;5070718;28;20534;-73
2021/03/04 09:10:39;;;;;;;2.40;0.90;;;19.70;45.80;;;;;;5073723;28;20924;-73
2021/03/04 09:13:06;;;;;;;1.33;0.73;;;19.70;45.90;;;;;;5071257;28;21012;-72
2021/03/04 09:15:33;;;;;;;3.20;0.70;;;19.70;46.40;;;;;;5068219;27;20494;-71
2021/03/04 09:18:05;;;;;;;1.90;0.90;;;19.70;46.40;;;;;;5084063;27;20484;-74
2021/03/04 09:20:31;;;;;;;1.80;0.60;;;19.60;45.90;;;;;;5082215;27;20558;-71
2021/03/04 09:22:57;;;;;;;3.73;0.93;;;19.50;45.60;;;;;;5087484;27;20494;-73
2021/03/04 09:25:24;;;;;;;1.27;1.17;;;19.50;47.60;;;;;;5082097;28;20489;-73
2021/03/04 09:27:50;;;;;;;1.23;1.13;;;19.50;50.00;;;;;;5070673;28;20484;-73
2021/03/04 09:30:23;;;;;;;1.03;0.93;;;19.50;48.80;;;;;;5069912;28;21634;-73
2021/03/04 09:32:50;;;;;;;2.10;0.90;;;19.40;48.90;;;;;;5061319;28;20480;-72
2021/03/04 09:35:17;;;;;;;0.60;0.60;;;19.30;48.60;;;;;;5060407;28;20469;-73
2021/03/04 09:37:43;;;;;;;1.10;0.80;;;19.30;48.50;;;;;;5089771;27;20490;-73
2021/03/04 09:40:10;;;;;;;1.07;1.00;;;19.40;48.20;;;;;;5078596;27;21531;-72
2021/03/04 09:42:38;;;;;;;7.40;1.00;;;19.40;47.90;;;;;;5071980;28;21319;-73
2021/03/04 09:45:05;;;;;;;2.50;1.10;;;19.50;47.70;;;;;;5072746;28;20497;-73
2021/03/04 09:47:32;;;;;;;3.10;1.10;;;19.60;47.60;;;;;;5057255;28;20480;-73
2021/03/04 09:50:00;;;;;;;0.73;0.73;;;19.60;47.40;;;;;;5069162;28;20489;-72
2021/03/04 09:52:27;;;;;;;1.30;0.70;;;19.70;47.20;;;;;;5072604;28;20497;-72
2021/03/04 09:55:04;;;;;;;1.70;1.10;;;19.70;47.70;;;;;;5074721;28;20488;-73
2021/03/04 09:57:30;;;;;;;1.20;0.90;;;19.80;46.70;;;;;;5066781;28;20554;-72
2021/03/04 09:59:56;;;;;;;2.30;0.97;;;19.80;46.60;;;;;;5081411;27;20479;-73
2021/03/04 10:02:25;;;;;;;1.57;0.80;;;19.80;46.60;;;;;;5082592;27;20477;-73
2021/03/04 10:04:53;;;;;;;2.87;0.60;;;19.80;46.40;;;;;;5069966;28;20480;-73
2021/03/04 10:07:23;;;;;;;4.03;0.83;;;19.80;46.40;;;;;;5070719;28;20601;-72
2021/03/04 10:09:49;;;;;;;0.70;0.70;;;19.80;46.40;;;;;;5050733;28;20995;-72
2021/03/04 10:12:16;;;;;;;2.33;0.70;;;19.80;46.50;;;;;;5069800;28;20480;-72
2021/03/04 10:14:43;;;;;;;0.80;0.80;;;19.80;46.40;;;;;;5071789;28;20511;-72
2021/03/04 10:17:09;;;;;;;2.43;1.20;;;19.90;46.50;;;;;;5065294;27;20482;-73
2021/03/04 10:19:35;;;;;;;1.10;1.10;;;19.80;46.50;;;;;;5092703;27;20468;-73
2021/03/04 10:22:01;;;;;;;1.83;0.77;;;19.90;46.50;;;;;;5069226;28;20485;-72
2021/03/04 10:24:29;;;;;;;0.70;0.70;;;19.80;46.40;;;;;;5070505;28;21220;-73
2021/03/04 10:26:58;;;;;;;0.80;0.80;;;19.80;46.40;;;;;;5075192;27;20483;-72
2021/03/04 10:29:24;;;;;;;0.80;0.80;;;19.90;46.50;;;;;;5084670;27;20617;-73
2021/03/04 10:31:50;;;;;;;1.33;0.83;;;19.90;46.50;;;;;;5069708;28;20473;-72
2021/03/04 10:34:16;;;;;;;2.97;1.10;;;19.90;46.40;;;;;;5068879;28;20473;-73
2021/03/04 10:36:43;;;;;;;0.80;0.77;;;19.80;46.40;;;;;;5068567;28;20481;-73
2021/03/04 10:39:09;;;;;;;2.50;0.83;;;19.90;46.50;;;;;;5066608;28;20492;-73
2021/03/04 10:41:36;;;;;;;2.00;0.73;;;19.90;46.50;;;;;;5071368;28;20477;-72
2021/03/04 10:44:02;;;;;;;0.70;0.60;;;19.90;46.40;;;;;;5069801;28;20527;-73
2021/03/04 10:46:28;;;;;;;0.70;0.60;;;19.90;46.40;;;;;;5072853;28;20500;-73
2021/03/04 10:48:55;;;;;;;1.77;0.77;;;19.90;46.20;;;;;;5066627;28;20529;-73
2021/03/04 10:51:21;;;;;;;1.20;1.10;;;19.80;46.40;;;;;;5064928;28;20494;-72
2021/03/04 10:53:47;;;;;;;0.57;0.57;;;19.80;46.30;;;;;;5070561;28;20801;-72
2021/03/04 10:56:13;;;;;;;0.80;0.80;;;19.90;46.40;;;;;;5067961;28;20477;-72
2021/03/04 10:58:40;;;;;;;2.10;0.97;;;19.90;46.30;;;;;;5068307;28;20488;-73
2021/03/04 11:01:06;;;;;;;0.93;0.80;;;19.90;46.30;;;;;;5083437;27;20487;-73
2021/03/04 11:03:33;;;;;;;1.47;0.90;;;19.90;46.40;;;;;;5085835;27;21290;-73
2021/03/04 11:05:59;;;;;;;2.83;0.93;;;19.80;46.50;;;;;;5074847;28;20470;-73
2021/03/04 11:08:25;;;;;;;2.30;1.33;;;19.80;46.40;;;;;;5073091;28;21137;-73
2021/03/04 11:10:51;;;;;;;3.60;0.70;;;19.80;46.40;;;;;;5100489;27;20463;-72
2021/03/04 11:13:18;;;;;;;2.40;0.70;;;19.90;46.40;;;;;;5082962;27;20478;-73
2021/03/04 11:15:45;;;;;;;1.00;0.83;;;19.90;46.20;;;;;;5093483;27;20504;-73
2021/03/04 11:18:11;;;;;;;0.70;0.50;;;19.90;46.20;;;;;;5089725;27;20487;-73
2021/03/04 11:20:37;;;;;;;0.80;0.80;;;19.90;46.20;;;;;;5082168;27;20484;-73
2021/03/04 11:23:04;;;;;;;0.70;0.70;;;20.00;46.30;;;;;;5073877;28;20531;-72
2021/03/04 11:25:30;;;;;;;1.83;0.60;;;20.00;46.30;;;;;;5074603;28;20547;-73
2021/03/04 11:27:56;;;;;;;2.40;0.80;;;19.90;46.10;;;;;;5077105;28;20488;-73
2021/03/04 11:30:23;;;;;;;0.80;0.70;;;19.90;46.10;;;;;;5072217;28;20483;-73
2021/03/04 11:32:50;;;;;;;1.73;1.13;;;19.90;46.10;;;;;;5103351;27;20476;-73
2021/03/04 11:35:16;;;;;;;1.40;1.23;;;19.90;46.10;;;;;;5075528;28;20476;-73
2021/03/04 11:37:42;;;;;;;2.33;0.90;;;19.90;46.90;;;;;;5075896;28;20777;-72
2021/03/04 11:40:10;;;;;;;0.80;0.80;;;19.90;46.10;;;;;;5070630;27;20495;-73
2021/03/04 11:42:36;;;;;;;0.70;0.50;;;19.90;46.10;;;;;;5103435;27;20516;-72
2021/03/04 11:45:02;;;;;;;0.80;0.77;;;19.90;46.10;;;;;;5073619;28;21134;-73
2021/03/04 11:47:28;;;;;;;1.53;0.80;;;19.90;46.10;;;;;;5073116;28;20492;-73
2021/03/04 11:49:55;;;;;;;1.17;1.00;;;19.90;46.10;;;;;;5073741;28;20495;-72
2021/03/04 11:52:22;;;;;;;1.13;0.60;;;19.90;46.20;;;;;;5072982;28;20485;-73
2021/03/04 11:54:48;;;;;;;1.17;1.00;;;19.90;46.10;;;;;;5072860;28;20495;-72
2021/03/04 11:57:14;;;;;;;5.60;1.33;;;19.90;46.20;;;;;;5072830;28;20484;-73
2021/03/04 11:59:40;;;;;;;1.90;1.00;;;20.00;46.20;;;;;;5074144;28;20500;-72
2021/03/04 12:02:06;;;;;;;0.90;0.90;;;19.90;46.10;;;;;;5097302;27;20485;-73
2021/03/04 12:04:33;;;;;;;0.70;0.70;;;19.80;46.40;;;;;;5089579;27;20938;-72
2021/03/04 12:07:00;;;;;;;1.43;0.83;;;19.80;46.50;;;;;;5077958;27;20527;-73
2021/03/04 12:09:26;;;;;;;4.57;0.70;;;19.80;47.40;;;;;;5088965;27;20475;-72
2021/03/04 12:11:52;;;;;;;0.90;0.90;;;19.80;46.90;;;;;;5080030;27;20903;-73
2021/03/04 12:14:18;;;;;;;1.13;0.67;;;19.80;46.70;;;;;;5076489;28;20482;-70
2021/03/04 12:16:45;;;;;;;1.47;1.00;;;19.90;46.50;;;;;;5066518;27;20480;-71
2021/03/04 12:19:11;;;;;;;1.53;0.63;;;19.80;46.60;;;;;;5095348;27;20522;-71
2021/03/04 12:21:37;;;;;;;1.00;0.77;;;19.80;46.40;;;;;;5074685;28;20515;-71
2021/03/04 12:24:05;;;;;;;2.87;0.80;;;19.70;46.40;;;;;;5074044;28;21529;-71
2021/03/04 12:26:32;;;;;;;2.03;1.00;;;19.70;46.40;;;;;;5072450;28;20477;-71
2021/03/04 12:28:58;;;;;;;1.83;0.73;;;19.70;46.40;;;;;;5078682;27;20954;-71
2021/03/04 12:31:24;;;;;;;1.20;1.10;;;19.70;46.40;;;;;;5083934;27;20492;-70
2021/03/04 12:33:51;;;;;;;3.90;0.90;;;19.70;46.40;;;;;;5075179;28;20828;-71
2021/03/04 12:36:17;;;;;;;1.83;0.93;;;19.70;46.40;;;;;;5071104;28;20485;-72
2021/03/04 12:38:43;;;;;;;1.77;1.07;;;19.70;46.40;;;;;;5070952;28;20477;-72
2021/03/04 12:41:11;;;;;;;2.03;0.87;;;19.70;46.60;;;;;;5076109;28;20481;-73
2021/03/04 12:43:37;;;;;;;3.40;1.13;;;19.70;46.80;;;;;;5072183;28;20476;-71
2021/03/04 12:46:03;;;;;;;1.93;1.10;;;19.80;46.50;;;;;;5071540;28;20493;-71